createdAt,value
2023-04-09T00:04:05.453Z,100864.91
2023-04-09T00:05:35.515Z,100860.13
2023-04-09T00:16:13.735Z,100867.63
2023-04-09T00:18:07.918Z,100850.88
2023-04-09T00:29:10.004Z,100853.84
2023-04-09T00:30:46.794Z,100852.31
2023-04-09T00:44:45.931Z,100862.31
2023-04-09T00:54:22.996Z,100866.81
2023-04-09T01:17:20.536Z,100846.97
2023-04-09T01:39:10.469Z,100884.50
2023-04-09T01:48:35.324Z,100906.06
2023-04-09T02:13:08.073Z,100908.06
2023-04-09T02:47:45.984Z,100913.72
2023-04-09T02:49:12.096Z,100903.59
2023-04-09T02:50:34.756Z,100915.44
2023-04-09T02:52:03.205Z,100907.13
2023-04-09T02:53:26.460Z,100916.16
2023-04-09T02:54:48.113Z,100911.06
2023-04-09T02:56:13.106Z,100908.38
2023-04-09T02:57:34.405Z,100916.69
2023-04-09T02:58:56.730Z,100910.50
2023-04-09T03:00:18.452Z,100910.78
2023-04-09T03:01:40.978Z,100904.84
2023-04-09T03:03:05.009Z,100906.28
2023-04-09T03:04:29.576Z,100913.31
2023-04-09T03:05:52.012Z,100906.09
2023-04-09T03:07:13.754Z,100903.72
2023-04-09T03:08:39.044Z,100904.44
2023-04-09T03:10:00.189Z,100904.72
2023-04-09T03:11:22.789Z,100909.50
2023-04-09T03:12:44.973Z,100884.69
2023-04-09T03:14:07.460Z,100915.00
2023-04-09T03:15:28.634Z,100897.53
2023-04-09T03:16:51.192Z,100899.19
2023-04-09T03:18:15.873Z,100899.78
2023-04-09T03:19:38.266Z,100896.69
2023-04-09T03:25:02.512Z,100904.00
2023-04-09T03:30:02.749Z,100893.59
2023-04-09T03:30:56.037Z,100904.97
2023-04-09T03:31:32.935Z,100896.81
2023-04-09T03:33:08.180Z,100885.56
2023-04-09T03:39:09.413Z,100902.88
2023-04-09T04:09:56.261Z,100911.88
2023-04-09T04:12:47.228Z,100910.06
2023-04-09T04:14:48.778Z,100916.97
2023-04-09T04:16:24.155Z,100895.25
2023-04-09T04:17:46.454Z,100908.38
2023-04-09T04:19:32.609Z,100907.81
2023-04-09T04:20:56.332Z,100927.00
2023-04-09T04:22:31.523Z,100925.00
2023-04-09T04:23:59.562Z,100913.59
2023-04-09T04:25:29.325Z,100914.00
2023-04-09T04:26:52.484Z,100908.38
2023-04-09T04:28:16.448Z,100918.09
2023-04-09T04:29:39.187Z,100907.94
2023-04-09T04:31:17.401Z,100898.06
2023-04-09T04:32:38.969Z,100924.28
2023-04-09T04:34:04.908Z,100917.94
2023-04-09T04:35:26.570Z,100929.06
2023-04-09T04:37:03.562Z,100916.09
2023-04-09T04:38:28.203Z,100935.00
2023-04-09T04:39:59.338Z,100926.25
2023-04-09T04:41:24.618Z,100925.84
2023-04-09T04:42:53.566Z,100907.63
2023-04-09T04:44:18.012Z,100913.69
2023-04-09T04:45:41.364Z,100912.44
2023-04-09T04:47:07.317Z,100916.78
2023-04-09T04:48:32.231Z,100914.09
2023-04-09T04:49:55.095Z,100928.63
2023-04-09T04:53:02.923Z,100926.47
2023-04-09T04:56:15.796Z,100918.19
2023-04-09T04:57:53.827Z,100912.66
2023-04-09T04:59:23.020Z,100918.44
2023-04-09T05:00:53.927Z,100919.72
2023-04-09T05:02:19.237Z,100920.84
2023-04-09T05:04:04.728Z,100926.06
2023-04-09T05:05:29.581Z,100932.81
2023-04-09T05:06:53.209Z,100927.47
2023-04-09T05:08:19.949Z,100927.47
2023-04-09T05:09:45.725Z,100931.81
2023-04-09T05:11:08.228Z,100932.69
2023-04-09T05:12:43.422Z,100925.50
2023-04-09T05:14:08.063Z,100926.03
2023-04-09T05:15:29.188Z,100925.91
2023-04-09T05:16:52.420Z,100931.97
2023-04-09T05:18:19.221Z,100926.19
2023-04-09T05:19:41.961Z,100932.81
2023-04-09T05:21:12.123Z,100938.88
2023-04-09T05:22:40.314Z,100929.53
2023-04-09T05:24:08.489Z,100935.06
2023-04-09T05:25:30.904Z,100929.53
2023-04-09T05:26:56.244Z,100932.06
2023-04-09T05:28:19.410Z,100924.16
2023-04-09T05:29:45.722Z,100939.25
2023-04-09T05:31:13.267Z,100925.44
2023-04-09T05:32:42.383Z,100926.97
2023-04-09T05:34:05.136Z,100939.34
2023-04-09T05:35:35.358Z,100940.75
2023-04-09T05:37:01.113Z,100942.44
2023-04-09T05:38:26.942Z,100929.31
2023-04-09T05:43:03.129Z,100951.72
2023-04-09T05:44:47.017Z,100942.97
2023-04-09T05:46:14.344Z,100942.97
2023-04-09T05:47:40.031Z,100941.28
2023-04-09T05:49:14.457Z,100942.44
2023-04-09T05:50:51.465Z,100958.78
2023-04-09T05:52:17.267Z,100942.97
2023-04-09T05:53:39.878Z,100956.25
2023-04-09T05:55:01.331Z,100953.25
2023-04-09T05:56:37.993Z,100959.47
2023-04-09T05:58:12.911Z,100951.72
2023-04-09T05:59:44.501Z,100950.19
2023-04-09T06:01:11.687Z,100950.19
2023-04-09T06:02:36.333Z,100944.81
2023-04-09T06:04:01.807Z,100954.81
2023-04-09T06:05:24.794Z,100943.66
2023-04-09T06:07:00.284Z,100950.44
2023-04-09T06:08:36.460Z,100960.16
2023-04-09T06:11:07.040Z,100959.47
2023-04-09T06:12:30.100Z,100950.19
2023-04-09T06:14:42.801Z,100954.69
2023-04-09T06:18:42.769Z,100954.31
2023-04-09T06:20:11.077Z,100956.16
2023-04-09T06:21:51.330Z,100936.56
2023-04-09T06:24:11.198Z,100946.72
2023-04-09T06:25:46.417Z,100931.47
2023-04-09T06:27:14.287Z,100953.06
2023-04-09T06:28:46.756Z,100944.84
2023-04-09T06:30:53.458Z,100928.66
2023-04-09T06:32:28.395Z,100937.09
2023-04-09T06:35:02.844Z,100936.97
2023-04-09T06:36:27.449Z,100937.41
2023-04-09T06:37:49.685Z,100937.09
2023-04-09T06:39:14.172Z,100935.97
2023-04-09T06:40:40.695Z,100930.31
2023-04-09T06:42:05.627Z,100940.63
2023-04-09T06:43:44.465Z,100944.44
2023-04-09T06:45:08.873Z,100948.97
2023-04-09T06:46:31.733Z,100938.84
2023-04-09T06:48:19.282Z,100963.13
2023-04-09T06:49:54.327Z,100965.38
2023-04-09T06:51:19.474Z,100959.19
2023-04-09T06:52:43.206Z,100951.28
2023-04-09T06:54:05.940Z,100957.19
2023-04-09T06:56:30.397Z,100959.19
2023-04-09T06:57:54.132Z,100956.66
2023-04-09T06:59:21.963Z,100959.22
2023-04-09T07:00:50.184Z,100943.84
2023-04-09T07:02:15.794Z,100948.50
2023-04-09T07:03:39.036Z,100939.88
2023-04-09T07:05:43.197Z,100941.47
2023-04-09T07:07:05.555Z,100964.03
2023-04-09T07:08:38.510Z,100955.84
2023-04-09T07:10:01.726Z,100954.44
2023-04-09T07:11:24.437Z,100972.53
2023-04-09T07:12:46.949Z,100968.97
2023-04-09T07:14:11.884Z,100964.91
2023-04-09T07:15:34.461Z,100967.00
2023-04-09T07:17:14.384Z,100964.75
2023-04-09T07:18:36.575Z,100971.94
2023-04-09T07:20:01.954Z,100968.97
2023-04-09T07:21:24.163Z,100976.28
2023-04-09T07:22:46.391Z,100973.06
2023-04-09T07:24:10.342Z,100978.13
2023-04-09T07:25:34.940Z,100973.75
2023-04-09T07:26:57.577Z,100977.72
2023-04-09T07:28:20.027Z,100971.06
2023-04-09T07:29:46.134Z,100971.22
2023-04-09T07:31:13.391Z,100977.28
2023-04-09T07:32:40.436Z,100973.59
2023-04-09T07:34:06.348Z,100967.69
2023-04-09T07:35:29.009Z,100977.69
2023-04-09T07:36:54.119Z,100981.91
2023-04-09T07:39:18.853Z,100994.19
2023-04-09T07:40:42.815Z,100992.22
2023-04-09T07:45:45.226Z,100968.63
2023-04-09T07:54:42.645Z,100971.69
2023-04-09T07:56:10.001Z,100967.88
2023-04-09T07:57:33.742Z,100957.63
2023-04-09T07:59:03.088Z,100976.06
2023-04-09T08:00:27.481Z,100959.41
2023-04-09T08:04:14.452Z,100968.97
2023-04-09T08:05:41.899Z,100975.56
2023-04-09T08:10:23.926Z,100978.06
2023-04-09T08:19:43.270Z,100994.72
2023-04-09T08:46:13.071Z,100975.19
2023-04-09T08:48:00.287Z,100987.94
2023-04-09T08:49:40.967Z,100973.69
2023-04-09T08:51:06.642Z,100974.47
2023-04-09T08:52:54.602Z,100978.41
2023-04-09T08:54:19.944Z,100973.41
2023-04-09T08:55:46.843Z,100979.53
2023-04-09T08:57:12.621Z,100978.88
2023-04-09T08:58:59.688Z,100985.31
2023-04-09T09:00:24.476Z,100987.38
2023-04-09T09:01:54.573Z,100977.34
2023-04-09T09:12:55.780Z,100981.97
2023-04-09T09:14:21.454Z,100982.50
2023-04-09T09:15:42.989Z,100986.88
2023-04-09T09:17:08.679Z,100989.41
2023-04-09T09:19:24.955Z,100992.25
2023-04-09T09:20:46.744Z,100988.03
2023-04-09T09:22:15.695Z,100986.69
2023-04-09T09:24:27.658Z,100981.28
2023-04-09T09:26:21.330Z,100991.50
2023-04-09T09:27:54.844Z,100985.22
2023-04-09T09:29:21.540Z,100989.59
2023-04-09T09:30:44.714Z,100991.13
2023-04-09T09:32:15.048Z,100999.19
2023-04-09T09:33:38.130Z,100991.59
2023-04-09T09:35:07.381Z,100996.00
2023-04-09T09:37:10.771Z,100988.00
2023-04-09T09:39:21.279Z,101000.28
2023-04-09T09:40:43.926Z,100993.06
2023-04-09T09:42:12.191Z,100996.44
2023-04-09T09:43:46.970Z,100996.59
2023-04-09T09:45:19.842Z,101003.69
2023-04-09T09:46:49.180Z,100990.38
2023-04-09T09:48:16.212Z,100995.91
2023-04-09T09:49:41.158Z,100984.94
2023-04-09T09:54:36.816Z,100979.19
2023-04-09T09:56:01.772Z,100980.41
2023-04-09T09:57:38.023Z,100982.63
2023-04-09T09:59:08.979Z,100981.31
2023-04-09T10:00:34.941Z,100975.25
2023-04-09T10:02:05.282Z,100977.44
2023-04-09T10:06:22.579Z,100977.84
2023-04-09T10:07:50.943Z,100973.94
2023-04-09T10:31:13.483Z,100988.97
2023-04-09T10:33:48.716Z,100982.19
2023-04-09T10:35:27.625Z,100967.97
2023-04-09T10:37:17.201Z,100980.56
2023-04-09T10:39:13.773Z,100971.25
2023-04-09T10:41:17.286Z,100968.72
2023-04-09T10:42:50.887Z,100965.94
2023-04-09T10:44:28.225Z,100964.13
2023-04-09T10:45:53.687Z,100970.41
2023-04-09T10:47:39.739Z,100956.59
2023-04-09T10:49:13.809Z,100963.19
2023-04-09T10:50:40.418Z,100965.28
2023-04-09T10:52:30.832Z,100975.28
2023-04-09T10:54:47.277Z,100968.63
2023-04-09T10:56:18.123Z,100967.75
2023-04-09T11:00:56.286Z,100971.28
2023-04-09T11:12:03.974Z,100964.63
2023-04-09T11:24:05.503Z,100974.25
2023-04-09T12:45:40.827Z,100964.28
2023-04-09T12:55:40.410Z,100967.16
2023-04-09T13:31:28.093Z,100964.09
2023-04-09T13:33:29.879Z,100973.69
2023-04-09T13:46:33.856Z,100963.41
2023-04-09T14:07:31.022Z,100968.72
2023-04-09T14:19:51.640Z,100970.47
2023-04-09T14:24:42.763Z,100960.66
2023-04-09T14:26:08.241Z,100965.25
2023-04-09T14:27:31.077Z,100950.44
2023-04-09T14:28:53.630Z,100960.19
2023-04-09T14:41:19.317Z,100961.19
2023-04-09T14:43:07.884Z,100960.88
2023-04-09T14:44:33.527Z,100956.81
2023-04-09T14:47:23.296Z,100959.03
2023-04-09T15:15:05.226Z,100950.44
2023-04-09T15:19:23.082Z,100930.00
2023-04-09T15:20:48.073Z,100946.41
2023-04-09T15:22:09.946Z,100935.09
2023-04-09T15:23:32.158Z,100947.38
2023-04-09T15:27:17.176Z,100948.38
2023-04-09T15:28:39.600Z,100943.16
2023-04-09T15:30:02.148Z,100948.06
2023-04-09T15:31:24.370Z,100944.69
2023-04-09T15:32:59.124Z,100948.78
2023-04-09T15:34:55.997Z,100950.63
2023-04-09T15:36:18.460Z,100939.19
2023-04-09T15:38:37.538Z,100934.63
2023-04-09T15:40:21.649Z,100950.00
2023-04-09T15:41:43.818Z,100942.75
2023-04-09T15:43:05.852Z,100941.22
2023-04-09T15:44:28.520Z,100948.00
2023-04-09T15:45:51.624Z,100940.63
2023-04-09T15:47:14.140Z,100942.16
2023-04-09T15:48:36.788Z,100943.00
2023-04-09T15:50:05.442Z,100933.09
2023-04-09T15:51:31.429Z,100929.72
2023-04-09T15:52:56.395Z,100931.28
2023-04-09T15:54:19.475Z,100931.41
2023-04-09T15:55:44.776Z,100936.84
2023-04-09T15:57:06.191Z,100934.16
2023-04-09T15:58:29.040Z,100935.00
2023-04-09T15:59:52.364Z,100946.31
2023-04-09T16:01:55.267Z,100934.72
2023-04-09T16:03:18.081Z,100942.78
2023-04-09T16:04:43.687Z,100935.00
2023-04-09T16:06:09.262Z,100938.38
2023-04-09T16:07:32.025Z,100934.88
2023-04-09T16:09:12.156Z,100923.22
2023-04-09T16:10:53.925Z,100928.09
2023-04-09T16:12:19.094Z,100924.56
2023-04-09T16:13:42.428Z,100931.94
2023-04-09T16:15:04.935Z,100923.34
2023-04-09T16:16:27.358Z,100934.63
2023-04-09T16:17:55.146Z,100929.72
2023-04-09T16:19:18.433Z,100922.13
2023-04-09T16:20:40.944Z,100943.69
2023-04-09T16:22:07.614Z,100943.84
2023-04-09T16:23:30.846Z,100941.16
2023-04-09T16:24:56.497Z,100932.72
2023-04-09T16:26:58.167Z,100928.66
2023-04-09T16:28:22.001Z,100930.66
2023-04-09T16:29:47.513Z,100934.88
2023-04-09T16:31:23.763Z,100927.28
2023-04-09T16:32:46.290Z,100931.50
2023-04-09T16:37:36.788Z,100929.00
2023-04-09T16:48:44.483Z,100928.16
2023-04-09T17:42:00.989Z,100962.22
2023-04-09T17:50:57.536Z,100974.84
2023-04-09T17:54:16.210Z,100968.78
2023-04-09T17:55:53.362Z,100963.72
2023-04-09T17:57:17.313Z,100969.63
2023-04-09T17:58:40.127Z,100962.00
2023-04-09T18:00:05.671Z,100969.31
2023-04-09T18:01:35.794Z,100965.94
2023-04-09T18:02:59.075Z,100960.88
2023-04-09T18:07:26.046Z,100973.72
2023-04-09T18:08:51.614Z,100975.25
2023-04-09T18:13:32.859Z,100977.94
2023-04-09T18:14:56.955Z,100972.84
2023-04-09T18:17:27.065Z,100978.91
2023-04-09T18:23:19.206Z,100976.00
2023-04-09T18:25:48.432Z,100980.22
2023-04-09T18:27:12.832Z,100975.44
2023-04-09T18:28:36.186Z,100996.31
2023-04-09T18:31:27.699Z,100986.56
2023-04-09T18:34:08.486Z,100987.56
2023-04-09T18:35:46.330Z,100993.78
2023-04-09T18:37:10.161Z,100984.50
2023-04-09T18:39:57.591Z,100985.88
2023-04-09T18:42:15.541Z,100990.56
2023-04-09T18:44:08.581Z,100997.91
2023-04-09T18:45:38.169Z,100975.88
2023-04-09T18:55:33.603Z,100998.47
2023-04-09T18:57:02.242Z,101003.72
2023-04-09T18:58:25.211Z,101011.31
2023-04-09T19:02:51.271Z,101009.63
2023-04-09T19:51:25.517Z,101022.94
2023-04-09T19:52:52.514Z,101017.16
2023-04-09T19:54:18.187Z,101016.34
2023-04-09T19:59:09.507Z,101006.97
2023-04-09T20:00:57.143Z,101027.59
2023-04-09T20:02:42.378Z,101012.09
2023-04-09T20:04:10.233Z,101026.31
2023-04-09T20:09:24.301Z,101022.53
2023-04-09T20:49:09.905Z,101028.91
2023-04-09T21:23:58.945Z,101014.09
2023-04-09T21:26:17.088Z,101019.56
2023-04-09T21:30:53.719Z,101028.59
2023-04-09T21:32:58.883Z,101027.78
2023-04-09T21:37:19.492Z,101024.22
2023-04-09T21:39:02.414Z,101015.50
2023-04-09T21:40:28.639Z,101018.19
2023-04-09T21:41:51.435Z,101025.22
2023-04-09T21:43:31.115Z,101017.59
2023-04-09T21:45:01.638Z,101013.38
2023-04-09T21:46:47.416Z,101017.47
2023-04-09T21:48:27.612Z,101013.38
2023-04-09T21:50:02.439Z,101028.75
2023-04-09T21:51:37.391Z,101015.09
2023-04-09T21:53:06.509Z,101013.25
2023-04-09T21:54:35.983Z,101027.91
2023-04-09T21:56:04.197Z,101015.63
2023-04-09T21:57:46.060Z,101018.31
2023-04-09T21:59:39.157Z,101025.63
2023-04-09T22:01:22.656Z,101024.22
2023-04-09T22:02:54.172Z,101028.91
2023-04-09T22:04:17.265Z,101033.69
2023-04-09T22:05:42.178Z,101021.84
2023-04-09T22:10:14.186Z,101016.06
2023-04-09T22:11:53.100Z,101041.31
2023-04-09T22:13:23.121Z,101022.97
2023-04-09T22:14:46.240Z,101033.88
2023-04-09T22:16:17.580Z,101022.25
2023-04-09T22:17:44.826Z,101026.66
2023-04-09T22:19:09.646Z,101033.41
2023-04-09T22:20:32.771Z,101031.72
2023-04-09T22:21:59.081Z,101030.19
2023-04-09T22:23:21.782Z,101034.53
2023-04-09T22:24:49.641Z,101027.78
2023-04-09T22:26:16.598Z,101033.88
2023-04-09T22:28:06.037Z,101028.06
2023-04-09T22:29:37.341Z,101018.63
2023-04-09T22:31:03.721Z,101014.22
2023-04-09T22:32:43.506Z,101019.75
2023-04-09T22:34:21.192Z,101025.97
2023-04-09T22:35:49.197Z,101021.72
2023-04-09T22:37:12.421Z,101022.28
2023-04-09T22:38:38.592Z,101024.13
2023-04-09T22:40:19.388Z,101014.25
2023-04-09T22:41:44.824Z,101010.00
2023-04-09T22:43:10.971Z,101012.84
2023-04-09T22:44:40.445Z,101013.84
2023-04-09T22:46:12.167Z,101016.38
2023-04-09T22:51:14.443Z,101023.28
2023-04-09T22:52:40.846Z,101021.47
2023-04-09T22:55:44.527Z,101016.09
2023-04-09T22:57:10.011Z,101021.47
2023-04-09T22:58:32.314Z,101015.41
2023-04-09T23:00:22.383Z,101017.22
2023-04-09T23:01:49.239Z,101024.00
2023-04-09T23:03:12.543Z,101010.31
2023-04-09T23:04:56.025Z,101014.84
2023-04-09T23:06:19.307Z,101018.22
2023-04-09T23:07:48.904Z,101017.53
2023-04-09T23:09:56.705Z,101031.34
2023-04-09T23:11:27.413Z,101021.19
2023-04-09T23:13:24.117Z,101013.72
2023-04-09T23:16:05.692Z,101026.41
2023-04-09T23:17:51.559Z,101007.09
2023-04-09T23:19:56.214Z,101013.28
2023-04-09T23:21:22.121Z,101024.00
2023-04-09T23:26:03.080Z,101013.56
2023-04-09T23:27:32.430Z,101020.34
2023-04-09T23:29:09.650Z,101014.28
2023-04-09T23:30:32.536Z,101011.44
2023-04-09T23:35:03.123Z,101005.81
2023-04-09T23:39:43.949Z,101016.53
2023-04-09T23:41:22.469Z,101016.38
2023-04-09T23:49:57.069Z,101020.47
2023-04-09T23:52:15.101Z,101002.84
2023-04-09T23:54:07.640Z,101016.53
2023-04-09T23:55:41.318Z,101022.03
2023-04-09T23:57:22.039Z,101023.03
2023-04-09T23:59:47.511Z,101026.41
